createdAt,value
2019-05-01T00:00:36.766Z,16.90
2019-05-01T00:01:36.747Z,19.00
2019-05-01T00:02:36.736Z,24.80
2019-05-01T00:03:36.722Z,17.10
2019-05-01T00:04:36.718Z,17.90
2019-05-01T00:05:36.674Z,19.70
2019-05-01T00:06:36.661Z,17.80
2019-05-01T00:07:36.665Z,18.60
2019-05-01T00:08:36.644Z,19.10
2019-05-01T00:09:36.599Z,17.20
2019-05-01T00:10:36.591Z,19.40
2019-05-01T00:11:36.569Z,20.30
2019-05-01T00:12:36.553Z,19.40
2019-05-01T00:13:36.544Z,18.10
2019-05-01T00:14:36.505Z,20.00
2019-05-01T00:15:36.486Z,19.20
2019-05-01T00:16:36.477Z,19.00
2019-05-01T00:17:36.449Z,18.70
2019-05-01T00:18:36.433Z,18.30
2019-05-01T00:19:36.454Z,17.00
2019-05-01T00:20:36.414Z,18.90
2019-05-01T00:21:36.380Z,20.00
2019-05-01T00:22:36.360Z,20.50
2019-05-01T00:23:36.346Z,21.10
2019-05-01T00:24:36.321Z,21.50
2019-05-01T00:25:36.336Z,20.20
2019-05-01T00:26:36.282Z,21.50
2019-05-01T00:27:36.262Z,21.50
2019-05-01T00:28:36.255Z,22.60
2019-05-01T00:29:36.234Z,17.60
2019-05-01T00:30:36.212Z,20.80
2019-05-01T00:31:36.205Z,19.30
2019-05-01T00:32:36.175Z,16.60
2019-05-01T00:33:36.150Z,19.60
2019-05-01T00:34:36.189Z,19.30
2019-05-01T00:35:36.137Z,18.60
2019-05-01T00:36:36.098Z,19.30
2019-05-01T00:37:36.077Z,21.70
2019-05-01T00:38:36.067Z,17.80
2019-05-01T00:39:36.065Z,19.80
2019-05-01T00:40:36.042Z,18.50
2019-05-01T00:41:36.001Z,20.60
2019-05-01T00:42:35.990Z,20.50
2019-05-01T00:43:35.965Z,24.40
2019-05-01T00:44:35.997Z,21.00
2019-05-01T00:45:35.935Z,22.00
2019-05-01T00:46:35.926Z,21.10
2019-05-01T00:47:35.897Z,21.00
2019-05-01T00:48:35.968Z,18.80
2019-05-01T00:49:35.868Z,20.70
2019-05-01T00:50:35.958Z,18.70
2019-05-01T00:51:35.839Z,18.30
2019-05-01T00:52:35.796Z,19.10
2019-05-01T00:53:35.779Z,19.20
2019-05-01T00:54:35.764Z,21.10
2019-05-01T00:55:35.740Z,21.50
2019-05-01T00:56:35.743Z,19.90
2019-05-01T00:57:35.703Z,19.10
2019-05-01T00:58:35.684Z,18.70
2019-05-01T00:59:35.663Z,19.80
2019-05-01T01:00:42.828Z,18.10
2019-05-01T01:01:35.640Z,27.00
2019-05-01T01:02:35.623Z,22.40
2019-05-01T01:03:35.586Z,21.70
2019-05-01T01:04:35.570Z,19.30
2019-05-01T01:05:35.553Z,18.90
2019-05-01T01:06:35.535Z,18.60
2019-05-01T01:07:35.516Z,19.40
2019-05-01T01:08:35.652Z,18.70
2019-05-01T01:09:35.490Z,18.90
2019-05-01T01:10:35.458Z,19.40
2019-05-01T01:11:35.439Z,19.30
2019-05-01T01:12:35.439Z,19.90
2019-05-01T01:13:35.426Z,20.70
2019-05-01T01:14:35.381Z,20.40
2019-05-01T01:15:35.365Z,21.60
2019-05-01T01:16:35.343Z,20.80
2019-05-01T01:17:35.323Z,19.70
2019-05-01T01:18:35.336Z,19.20
2019-05-01T01:19:35.288Z,21.80
2019-05-01T01:20:35.273Z,21.00
2019-05-01T01:21:35.247Z,21.90
2019-05-01T01:22:35.248Z,23.80
2019-05-01T01:23:35.216Z,22.70
2019-05-01T01:24:35.190Z,24.60
2019-05-01T01:25:35.172Z,19.30
2019-05-01T01:26:35.155Z,17.00
2019-05-01T01:27:35.135Z,21.40
2019-05-01T01:28:35.132Z,19.00
2019-05-01T01:29:35.096Z,20.30
2019-05-01T01:30:35.080Z,17.90
2019-05-01T01:31:35.058Z,20.30
2019-05-01T01:32:35.039Z,20.90
2019-05-01T01:33:35.032Z,19.20
2019-05-01T01:34:35.000Z,20.90
2019-05-01T01:35:35.628Z,22.80
2019-05-01T01:36:34.971Z,24.30
2019-05-01T01:37:34.951Z,18.50
2019-05-01T01:38:34.951Z,19.50
2019-05-01T01:39:34.910Z,18.40
2019-05-01T01:40:34.897Z,18.70
2019-05-01T01:41:34.868Z,22.50
2019-05-01T01:42:34.853Z,20.90
2019-05-01T01:43:34.830Z,21.40
2019-05-01T01:44:34.827Z,21.00
2019-05-01T01:45:34.790Z,22.60
2019-05-01T01:46:34.771Z,19.50
2019-05-01T01:47:34.752Z,21.50
2019-05-01T01:48:34.740Z,19.20
2019-05-01T01:49:34.738Z,19.00
2019-05-01T01:50:34.718Z,21.20
2019-05-01T01:51:34.681Z,19.50
2019-05-01T01:52:34.662Z,19.00
2019-05-01T01:53:34.641Z,20.30
2019-05-01T01:54:34.619Z,22.50
2019-05-01T01:55:34.635Z,20.00
2019-05-01T01:56:34.579Z,20.60
2019-05-01T01:57:34.566Z,17.20
2019-05-01T01:58:34.538Z,23.10
2019-05-01T01:59:34.525Z,20.90
2019-05-01T02:00:34.504Z,21.40
2019-05-01T02:01:34.495Z,21.60
2019-05-01T02:02:34.477Z,20.70
2019-05-01T02:03:34.442Z,21.50
2019-05-01T02:04:34.423Z,19.70
2019-05-01T02:05:34.414Z,19.60
2019-05-01T02:06:34.393Z,17.50
2019-05-01T02:07:34.386Z,20.00
2019-05-01T02:08:34.354Z,20.80
2019-05-01T02:09:34.330Z,19.90
2019-05-01T02:10:42.555Z,21.20
2019-05-01T02:11:34.292Z,21.50
2019-05-01T02:12:34.272Z,20.00
2019-05-01T02:13:34.269Z,19.30
2019-05-01T02:14:34.251Z,22.00
2019-05-01T02:15:34.213Z,24.70
2019-05-01T02:16:34.204Z,21.70
2019-05-01T02:17:34.189Z,21.10
2019-05-01T02:18:34.171Z,26.20
2019-05-01T02:19:34.136Z,20.50
2019-05-01T02:20:34.120Z,19.30
2019-05-01T02:21:34.114Z,19.00
2019-05-01T02:22:34.085Z,20.30
2019-05-01T02:23:34.069Z,21.70
2019-05-01T02:24:34.044Z,23.60
2019-05-01T02:25:34.051Z,21.70
2019-05-01T02:26:34.001Z,19.80
2019-05-01T02:27:33.980Z,19.60
2019-05-01T02:28:33.970Z,21.60
2019-05-01T02:29:33.948Z,23.70
2019-05-01T02:30:33.949Z,21.80
2019-05-01T02:31:33.904Z,21.80
2019-05-01T02:32:33.888Z,20.10
2019-05-01T02:33:33.869Z,19.70
2019-05-01T02:34:33.862Z,19.30
2019-05-01T02:35:33.830Z,22.50
2019-05-01T02:36:33.841Z,21.00
2019-05-01T02:37:33.790Z,18.50
2019-05-01T02:38:33.776Z,19.40
2019-05-01T02:39:33.758Z,20.80
2019-05-01T02:40:33.753Z,23.20
2019-05-01T02:41:33.718Z,20.00
2019-05-01T02:42:33.711Z,22.60
2019-05-01T02:43:33.678Z,21.00
2019-05-01T02:44:33.664Z,20.30
2019-05-01T02:45:33.638Z,19.10
2019-05-01T02:46:33.634Z,22.20
2019-05-01T02:47:33.609Z,18.80
2019-05-01T02:48:33.579Z,18.50
2019-05-01T02:49:33.564Z,20.70
2019-05-01T02:50:33.539Z,22.30
2019-05-01T02:51:33.526Z,21.60
2019-05-01T02:52:33.526Z,21.60
2019-05-01T02:53:33.506Z,20.20
2019-05-01T02:54:33.469Z,20.60
2019-05-01T02:55:33.446Z,22.40
2019-05-01T02:56:33.437Z,22.30
2019-05-01T02:57:33.450Z,21.00
2019-05-01T02:58:33.386Z,22.60
2019-05-01T02:59:33.449Z,20.40
2019-05-01T03:00:33.348Z,23.00
2019-05-01T03:01:46.567Z,20.50
2019-05-01T03:02:33.316Z,22.60
2019-05-01T03:03:33.300Z,21.80
2019-05-01T03:04:33.273Z,21.30
2019-05-01T03:05:33.284Z,21.90
2019-05-01T03:06:33.233Z,18.40
2019-05-01T03:07:33.240Z,19.10
2019-05-01T03:08:33.194Z,20.10
2019-05-01T03:09:33.191Z,23.50
2019-05-01T03:10:33.154Z,22.40
2019-05-01T03:11:33.157Z,23.80
2019-05-01T03:12:33.116Z,21.50
2019-05-01T03:13:33.148Z,21.60
2019-05-01T03:14:33.093Z,21.30
2019-05-01T03:15:33.060Z,21.30
2019-05-01T03:16:33.044Z,22.80
2019-05-01T03:17:33.026Z,19.40
2019-05-01T03:18:33.001Z,20.00
2019-05-01T03:19:33.246Z,20.40
2019-05-01T03:20:32.964Z,20.30
2019-05-01T03:21:32.944Z,19.10
2019-05-01T03:22:32.929Z,22.90
2019-05-01T03:23:32.922Z,23.00
2019-05-01T03:24:32.906Z,20.30
2019-05-01T03:25:32.874Z,21.80
2019-05-01T03:26:32.847Z,20.40
2019-05-01T03:27:32.847Z,21.60
2019-05-01T03:28:32.809Z,21.00
2019-05-01T03:29:32.958Z,21.50
2019-05-01T03:30:32.775Z,22.40
2019-05-01T03:31:32.752Z,21.80
2019-05-01T03:32:32.731Z,22.20
2019-05-01T03:33:32.720Z,24.80
2019-05-01T03:34:32.723Z,21.00
2019-05-01T03:35:32.841Z,24.70
2019-05-01T03:36:32.655Z,23.20
2019-05-01T03:37:32.636Z,21.40
2019-05-01T03:38:32.616Z,25.50
2019-05-01T03:39:32.594Z,23.00
2019-05-01T03:40:32.589Z,22.90
2019-05-01T03:41:32.686Z,21.50
2019-05-01T03:42:32.537Z,23.20
2019-05-01T03:43:32.517Z,21.70
2019-05-01T03:44:32.514Z,22.10
2019-05-01T03:45:34.310Z,23.00
2019-05-01T03:46:32.469Z,22.40
2019-05-01T03:47:32.443Z,25.40
2019-05-01T03:48:32.464Z,24.80
2019-05-01T03:49:32.401Z,21.90
2019-05-01T03:50:32.383Z,25.20
2019-05-01T03:51:32.366Z,24.70
2019-05-01T03:52:32.362Z,23.50
2019-05-01T03:53:32.327Z,24.50
2019-05-01T03:54:32.320Z,23.90
2019-05-01T03:55:32.291Z,25.70
2019-05-01T03:56:32.303Z,22.30
2019-05-01T03:57:32.261Z,23.50
2019-05-01T03:58:32.226Z,28.00
2019-05-01T03:59:32.205Z,27.30
2019-05-01T04:00:32.190Z,31.80
2019-05-01T04:01:32.184Z,29.80
2019-05-01T04:02:34.392Z,27.20
2019-05-01T04:03:32.129Z,28.60
2019-05-01T04:04:32.116Z,30.20
2019-05-01T04:05:32.094Z,30.00
2019-05-01T04:06:32.077Z,30.00
2019-05-01T04:07:36.085Z,24.70
2019-05-01T04:08:32.033Z,25.90
2019-05-01T04:09:32.015Z,27.30
2019-05-01T04:10:32.000Z,25.70
2019-05-01T04:11:31.983Z,23.40
2019-05-01T04:12:31.975Z,23.30
2019-05-01T04:13:31.941Z,27.60
2019-05-01T04:14:31.921Z,26.50
2019-05-01T04:15:31.898Z,21.40
2019-05-01T04:16:31.885Z,25.60
2019-05-01T04:17:31.860Z,26.40
2019-05-01T04:18:31.862Z,25.10
2019-05-01T04:19:31.821Z,25.80
2019-05-01T04:20:31.806Z,26.80
2019-05-01T04:21:31.787Z,23.30
2019-05-01T04:22:31.768Z,26.00
2019-05-01T04:23:31.772Z,24.40
2019-05-01T04:24:31.723Z,22.30
2019-05-01T04:25:31.713Z,25.10
2019-05-01T04:26:31.697Z,28.10
2019-05-01T04:27:31.666Z,25.00
2019-05-01T04:28:31.648Z,26.90
2019-05-01T04:29:31.657Z,23.10
2019-05-01T04:30:31.620Z,29.50
2019-05-01T04:31:31.591Z,27.20
2019-05-01T04:32:31.578Z,31.70
2019-05-01T04:33:31.554Z,27.60
2019-05-01T04:34:31.532Z,27.10
2019-05-01T04:35:31.530Z,28.80
2019-05-01T04:36:31.514Z,28.80
2019-05-01T04:37:31.482Z,27.90
2019-05-01T04:38:31.498Z,29.40
2019-05-01T04:39:31.437Z,29.30
2019-05-01T04:40:31.448Z,29.00
2019-05-01T04:41:31.397Z,33.10
2019-05-01T04:42:31.384Z,32.70
2019-05-01T04:43:31.365Z,34.20
2019-05-01T04:44:31.353Z,34.40
2019-05-01T04:45:31.323Z,41.30
2019-05-01T04:46:31.329Z,34.80
2019-05-01T04:47:31.285Z,37.60
2019-05-01T04:48:31.281Z,37.70
2019-05-01T04:49:31.271Z,40.90
2019-05-01T04:50:31.235Z,44.20
2019-05-01T04:51:31.205Z,39.40
2019-05-01T04:52:31.189Z,42.50
2019-05-01T04:53:31.179Z,41.10
2019-05-01T04:54:31.166Z,42.80
2019-05-01T04:55:31.127Z,43.60
2019-05-01T04:56:31.112Z,46.70
2019-05-01T04:57:31.092Z,47.00
2019-05-01T04:58:31.067Z,46.30
2019-05-01T04:59:31.048Z,50.00
2019-05-01T05:00:31.048Z,52.90
2019-05-01T05:01:31.032Z,48.50
2019-05-01T05:02:30.998Z,54.80
2019-05-01T05:03:30.994Z,50.30
2019-05-01T05:04:30.954Z,50.50
2019-05-01T05:05:30.950Z,56.90
2019-05-01T05:06:30.915Z,53.60
2019-05-01T05:07:30.896Z,48.30
2019-05-01T05:08:30.880Z,52.10
2019-05-01T05:09:30.860Z,54.20
2019-05-01T05:10:30.857Z,55.50
2019-05-01T05:11:30.821Z,53.20
2019-05-01T05:12:30.800Z,53.90
2019-05-01T05:13:30.778Z,52.60
2019-05-01T05:14:30.762Z,55.80
2019-05-01T05:15:30.745Z,52.80
2019-05-01T05:16:30.739Z,57.30
2019-05-01T05:17:30.702Z,59.60
2019-05-01T05:18:30.685Z,61.80
2019-05-01T05:19:30.666Z,58.00
2019-05-01T05:20:30.670Z,51.80
2019-05-01T05:21:30.629Z,63.40
2019-05-01T05:22:30.620Z,62.40
2019-05-01T05:23:30.586Z,55.80
2019-05-01T05:24:30.586Z,64.50
2019-05-01T05:25:30.555Z,63.80
2019-05-01T05:26:30.529Z,60.50
2019-05-01T05:27:30.509Z,61.00
2019-05-01T05:30:12.664Z,57.70
2019-05-01T05:31:12.624Z,62.00
2019-05-01T05:32:12.625Z,62.50
2019-05-01T05:33:18.454Z,63.10
2019-05-01T05:34:12.578Z,62.20
2019-05-01T05:35:12.553Z,65.50
2019-05-01T05:36:12.531Z,71.80
2019-05-01T05:37:12.511Z,64.90
2019-05-01T05:38:12.495Z,65.50
2019-05-01T05:39:12.469Z,66.90
2019-05-01T05:40:12.471Z,83.80
2019-05-01T05:41:12.425Z,64.00
2019-05-01T05:42:12.421Z,68.00
2019-05-01T05:43:12.394Z,73.80
2019-05-01T05:44:12.368Z,63.80
2019-05-01T05:45:12.349Z,68.40
2019-05-01T05:46:12.346Z,67.80
2019-05-01T05:47:12.314Z,66.20
2019-05-01T05:48:12.323Z,73.50
2019-05-01T05:49:12.274Z,61.90
2019-05-01T05:50:12.253Z,68.30
2019-05-01T05:51:12.243Z,64.80
2019-05-01T05:52:12.224Z,70.40
2019-05-01T05:53:12.212Z,68.90
2019-05-01T05:54:12.228Z,61.60
2019-05-01T05:55:12.163Z,59.40
2019-05-01T05:56:12.141Z,62.30
2019-05-01T05:57:12.124Z,57.60
2019-05-01T05:58:12.105Z,59.60
2019-05-01T05:59:12.080Z,61.50
2019-05-01T06:00:12.080Z,66.60
2019-05-01T06:01:12.042Z,62.00
2019-05-01T06:02:12.028Z,62.90
2019-05-01T06:03:12.037Z,59.40
2019-05-01T06:04:12.006Z,57.40
2019-05-01T06:05:11.967Z,61.40
2019-05-01T06:06:11.955Z,66.90
2019-05-01T06:07:11.932Z,63.10
2019-05-01T06:08:11.915Z,66.60
2019-05-01T06:09:13.838Z,62.10
2019-05-01T06:10:11.878Z,69.70
2019-05-01T06:11:11.849Z,71.30
2019-05-01T06:12:11.832Z,63.00
2019-05-01T06:13:11.808Z,60.70
2019-05-01T06:15:54.173Z,63.30
2019-05-01T06:16:54.165Z,62.90
2019-05-01T06:17:54.110Z,57.00
2019-05-01T06:18:54.090Z,66.40
2019-05-01T06:19:54.070Z,60.00
2019-05-01T06:20:57.242Z,66.00
2019-05-01T06:21:54.058Z,74.60
2019-05-01T06:22:54.010Z,60.60
2019-05-01T06:23:57.764Z,68.00
2019-05-01T06:24:53.979Z,66.40
2019-05-01T06:25:59.476Z,59.40
2019-05-01T06:26:53.953Z,70.00
2019-05-01T06:27:53.936Z,67.90
2019-05-01T06:28:55.888Z,68.30
2019-05-01T06:29:53.876Z,74.00
2019-05-01T06:30:53.860Z,69.60
2019-05-01T06:31:58.524Z,64.70
2019-05-01T06:32:53.817Z,71.00
2019-05-01T06:33:54.938Z,69.40
2019-05-01T06:34:53.797Z,71.10
2019-05-01T06:35:53.762Z,68.00
2019-05-01T06:36:53.743Z,66.00
2019-05-01T06:37:55.970Z,63.70
2019-05-01T06:38:53.727Z,60.90
2019-05-01T06:39:53.678Z,62.60
2019-05-01T06:40:58.320Z,61.40
2019-05-01T06:41:53.646Z,63.10
2019-05-01T06:42:53.625Z,65.10
2019-05-01T06:43:57.002Z,70.40
2019-05-01T06:44:53.587Z,60.60
2019-05-01T06:45:53.573Z,58.70
2019-05-01T06:46:53.552Z,57.80
2019-05-01T06:47:53.531Z,61.40
2019-05-01T06:48:54.704Z,67.70
2019-05-01T06:49:53.511Z,58.40
2019-05-01T06:50:53.471Z,58.90
2019-05-01T06:51:53.711Z,57.70
2019-05-01T06:52:53.445Z,66.10
2019-05-01T06:53:53.436Z,56.50
2019-05-01T06:54:53.593Z,66.80
2019-05-01T06:55:53.390Z,67.90
2019-05-01T06:56:53.361Z,70.00
2019-05-01T06:57:53.345Z,65.20
2019-05-01T06:58:55.346Z,68.70
2019-05-01T06:59:53.307Z,70.70
2019-05-01T07:00:53.308Z,76.80
2019-05-01T07:01:58.422Z,62.50
2019-05-01T07:02:53.237Z,62.00
2019-05-01T07:04:03.407Z,59.40
2019-05-01T07:04:53.205Z,61.10
2019-05-01T07:05:54.298Z,65.70
2019-05-01T07:06:53.180Z,63.60
2019-05-01T07:07:54.827Z,63.60
2019-05-01T07:08:53.122Z,69.40
2019-05-01T07:09:53.102Z,60.80
2019-05-01T07:10:53.087Z,71.60
2019-05-01T07:11:54.573Z,62.50
2019-05-01T07:12:53.045Z,59.20
2019-05-01T07:13:55.465Z,69.60
2019-05-01T07:14:53.011Z,60.60
2019-05-01T07:15:53.020Z,63.00
2019-05-01T07:16:52.972Z,63.10
2019-05-01T07:17:52.971Z,64.10
2019-05-01T07:18:52.928Z,62.10
2019-05-01T07:19:52.922Z,73.70
2019-05-01T07:20:53.399Z,66.60
2019-05-01T07:21:52.881Z,67.90
2019-05-01T07:22:52.871Z,59.10
2019-05-01T07:23:53.394Z,61.40
2019-05-01T07:24:52.814Z,69.50
2019-05-01T07:25:52.795Z,58.10
2019-05-01T07:26:52.775Z,65.90
2019-05-01T07:27:53.977Z,61.00
2019-05-01T07:28:52.759Z,60.00
2019-05-01T07:29:52.717Z,64.60
2019-05-01T07:30:54.723Z,67.30
2019-05-01T07:31:52.679Z,60.60
2019-05-01T07:32:52.660Z,55.80
2019-05-01T07:33:52.672Z,59.60
2019-05-01T07:34:56.722Z,58.40
2019-05-01T07:35:54.049Z,60.80
2019-05-01T07:36:52.604Z,62.00
2019-05-01T07:37:52.571Z,60.40
2019-05-01T07:38:52.546Z,61.50
2019-05-01T07:39:52.562Z,62.50
2019-05-01T07:40:52.505Z,57.30
2019-05-01T07:41:52.492Z,59.20
2019-05-01T07:42:52.466Z,57.90
2019-05-01T07:43:54.952Z,56.80
2019-05-01T07:44:52.429Z,60.40
2019-05-01T07:45:52.434Z,55.50
2019-05-01T07:46:54.028Z,54.50
2019-05-01T07:47:52.397Z,55.90
2019-05-01T07:48:52.355Z,57.20
2019-05-01T07:49:53.122Z,53.60
2019-05-01T07:50:52.327Z,54.60
2019-05-01T07:51:52.306Z,49.40
2019-05-01T07:52:53.952Z,52.10
2019-05-01T07:53:52.303Z,49.30
2019-05-01T07:54:52.247Z,58.50
2019-05-01T07:55:52.707Z,57.00
2019-05-01T07:56:52.209Z,60.00
2019-05-01T07:57:52.184Z,58.60
2019-05-01T07:58:53.297Z,51.10
2019-05-01T07:59:52.166Z,55.00
2019-05-01T08:00:52.136Z,59.80
2019-05-01T08:01:54.403Z,57.80
2019-05-01T08:02:52.086Z,55.50
2019-05-01T08:03:52.131Z,54.00
2019-05-01T08:04:52.067Z,49.90
2019-05-01T08:05:52.034Z,45.20
2019-05-01T08:06:56.546Z,44.10
2019-05-01T08:07:51.997Z,42.50
2019-05-01T08:08:51.979Z,43.60
2019-05-01T08:09:51.980Z,45.20
2019-05-01T08:10:51.958Z,42.10
2019-05-01T08:11:51.916Z,43.10
2019-05-01T08:12:55.384Z,43.50
2019-05-01T08:13:51.920Z,40.50
2019-05-01T08:14:52.403Z,45.00
2019-05-01T08:15:51.851Z,40.60
2019-05-01T08:16:51.844Z,38.30
2019-05-01T08:17:53.139Z,37.60
2019-05-01T08:18:51.814Z,39.10
2019-05-01T08:19:51.772Z,38.90
2019-05-01T08:20:51.747Z,35.90
2019-05-01T08:21:51.769Z,40.90
2019-05-01T08:22:51.757Z,33.90
2019-05-01T08:23:51.699Z,38.60
2019-05-01T08:24:53.855Z,39.50
2019-05-01T08:25:51.657Z,37.40
2019-05-01T08:26:51.635Z,37.00
2019-05-01T08:27:56.431Z,36.10
2019-05-01T08:28:51.598Z,35.60
2019-05-01T08:29:51.593Z,36.30
2019-05-01T08:30:52.710Z,34.60
2019-05-01T08:31:51.543Z,36.90
2019-05-01T08:32:51.540Z,36.00
2019-05-01T08:33:51.633Z,31.70
2019-05-01T08:34:51.479Z,29.10
2019-05-01T08:35:51.465Z,33.10
2019-05-01T08:36:51.468Z,28.00
2019-05-01T08:37:53.807Z,31.00
2019-05-01T08:38:51.409Z,29.00
2019-05-01T08:39:51.399Z,29.00
2019-05-01T08:40:55.536Z,31.60
2019-05-01T08:41:51.348Z,30.60
2019-05-01T08:42:51.355Z,27.10
2019-05-01T08:43:53.888Z,28.80
2019-05-01T08:44:51.293Z,30.70
2019-05-01T08:45:51.276Z,30.20
2019-05-01T08:46:52.209Z,27.10
2019-05-01T08:47:51.243Z,27.50
2019-05-01T08:48:51.233Z,26.00
2019-05-01T08:49:51.201Z,33.70
2019-05-01T08:50:54.511Z,26.00
2019-05-01T08:51:51.161Z,27.20
2019-05-01T08:52:51.145Z,26.00
2019-05-01T08:53:52.743Z,27.10
2019-05-01T08:54:51.129Z,26.60
2019-05-01T08:55:51.105Z,25.90
2019-05-01T08:56:52.992Z,26.50
2019-05-01T08:57:51.063Z,29.40
2019-05-01T08:58:51.044Z,24.50
2019-05-01T08:59:51.021Z,26.90
2019-05-01T09:00:51.031Z,26.30
2019-05-01T09:02:07.928Z,24.90
2019-05-01T09:02:50.954Z,24.10
2019-05-01T09:03:54.199Z,23.20
2019-05-01T09:05:01.708Z,26.60
2019-05-01T09:05:52.184Z,24.10
2019-05-01T09:06:50.910Z,29.70
2019-05-01T09:07:51.194Z,28.00
2019-05-01T09:08:50.879Z,24.90
2019-05-01T09:09:50.842Z,23.70
2019-05-01T09:10:54.706Z,25.90
2019-05-01T09:11:50.791Z,25.40
2019-05-01T09:12:52.068Z,26.20
2019-05-01T09:13:54.613Z,27.40
2019-05-01T09:14:51.294Z,28.70
2019-05-01T09:15:50.723Z,27.60
2019-05-01T09:16:52.490Z,24.50
2019-05-01T09:17:50.681Z,25.60
2019-05-01T09:18:50.663Z,26.70
2019-05-01T09:19:50.654Z,23.80
2019-05-01T09:20:50.647Z,25.10
2019-05-01T09:21:50.605Z,28.10
2019-05-01T09:22:50.590Z,28.80
2019-05-01T09:23:51.388Z,27.20
2019-05-01T09:24:50.551Z,35.40
2019-05-01T09:25:50.540Z,37.40
2019-05-01T09:26:51.513Z,32.80
2019-05-01T09:27:50.507Z,42.90
2019-05-01T09:28:50.476Z,37.00
2019-05-01T09:29:51.563Z,37.40
2019-05-01T09:30:50.444Z,39.10
2019-05-01T09:31:50.419Z,37.00
2019-05-01T09:32:54.294Z,41.40
2019-05-01T09:33:50.392Z,41.80
2019-05-01T09:34:50.365Z,38.70
2019-05-01T09:35:50.345Z,48.00
2019-05-01T09:36:50.330Z,50.90
2019-05-01T09:37:50.336Z,52.00
2019-05-01T09:38:50.297Z,50.20
2019-05-01T09:39:50.279Z,48.70
2019-05-01T09:40:50.262Z,43.50
2019-05-01T09:41:50.239Z,45.10
2019-05-01T09:42:50.241Z,40.20
2019-05-01T09:43:50.201Z,41.50
2019-05-01T09:44:50.198Z,36.60
2019-05-01T09:45:50.174Z,28.70
2019-05-01T09:46:50.155Z,32.90
2019-05-01T09:47:50.133Z,27.00
2019-05-01T09:48:50.130Z,31.00
2019-05-01T09:49:54.027Z,30.80
2019-05-01T09:50:50.076Z,28.70
2019-05-01T09:51:50.061Z,30.20
2019-05-01T09:52:50.043Z,26.30
2019-05-01T09:53:50.026Z,30.00
2019-05-01T09:54:50.015Z,31.00
2019-05-01T09:55:49.980Z,30.00
2019-05-01T09:56:49.971Z,29.50
2019-05-01T09:57:49.953Z,33.30
2019-05-01T09:58:49.929Z,31.50
2019-05-01T09:59:49.941Z,30.70
2019-05-01T10:00:52.691Z,32.60
2019-05-01T10:01:49.878Z,30.60
2019-05-01T10:02:49.855Z,32.50
2019-05-01T10:03:54.654Z,29.80
2019-05-01T10:04:49.819Z,30.70
2019-05-01T10:05:49.814Z,29.70
2019-05-01T10:06:52.209Z,27.90
2019-05-01T10:07:49.763Z,33.60
2019-05-01T10:08:49.759Z,32.20
2019-05-01T10:09:52.240Z,35.60
2019-05-01T10:10:49.711Z,30.30
2019-05-01T10:11:49.711Z,35.20
2019-05-01T10:12:49.670Z,36.80
2019-05-01T10:13:53.736Z,30.30
2019-05-01T10:14:49.631Z,32.60
2019-05-01T10:15:49.615Z,36.40
2019-05-01T10:16:49.600Z,40.70
2019-05-01T10:17:49.599Z,33.00
2019-05-01T10:18:49.562Z,29.70
2019-05-01T10:19:50.244Z,34.20
2019-05-01T10:20:49.528Z,34.50
2019-05-01T10:21:49.509Z,31.10
2019-05-01T10:22:49.504Z,34.20
2019-05-01T10:23:51.730Z,34.00
2019-05-01T10:24:49.453Z,37.20
2019-05-01T10:25:49.825Z,31.70
2019-05-01T10:26:49.416Z,31.70
2019-05-01T10:27:49.407Z,35.00
2019-05-01T10:28:50.183Z,32.30
2019-05-01T10:29:49.362Z,35.40
2019-05-01T10:30:49.350Z,37.80
2019-05-01T10:31:49.328Z,31.60
2019-05-01T10:32:52.927Z,30.10
2019-05-01T10:33:49.295Z,31.50
2019-05-01T10:34:49.294Z,30.20
2019-05-01T10:35:49.256Z,33.40
2019-05-01T10:36:49.923Z,30.80
2019-05-01T10:37:49.218Z,31.60
2019-05-01T10:38:49.201Z,31.20
2019-05-01T10:39:50.136Z,29.40
2019-05-01T10:40:49.181Z,30.60
2019-05-01T10:41:49.143Z,31.30
2019-05-01T10:42:49.131Z,32.90
2019-05-01T10:43:49.107Z,30.90
2019-05-01T10:44:49.098Z,30.40
2019-05-01T10:45:49.073Z,31.20
2019-05-01T10:46:49.076Z,31.10
2019-05-01T10:47:49.044Z,30.10
2019-05-01T10:48:49.022Z,31.10
2019-05-01T10:49:49.018Z,31.70
2019-05-01T10:50:48.995Z,26.10
2019-05-01T10:51:48.967Z,30.40
2019-05-01T10:52:48.944Z,31.20
2019-05-01T10:53:48.932Z,33.10
2019-05-01T10:54:48.942Z,30.60
2019-05-01T10:55:48.897Z,33.80
2019-05-01T10:56:48.875Z,31.30
2019-05-01T10:57:48.872Z,33.50
2019-05-01T10:58:48.844Z,31.80
2019-05-01T10:59:48.830Z,31.70
2019-05-01T11:00:48.833Z,31.10
2019-05-01T11:01:48.838Z,34.00
2019-05-01T11:02:48.765Z,31.70
2019-05-01T11:03:48.762Z,34.40
2019-05-01T11:04:48.729Z,32.00
2019-05-01T11:05:55.668Z,31.90
2019-05-01T11:06:48.720Z,31.60
2019-05-01T11:07:48.695Z,33.90
2019-05-01T11:08:48.664Z,29.50
2019-05-01T11:09:48.640Z,30.30
2019-05-01T11:10:48.628Z,24.90
2019-05-01T11:11:48.614Z,28.40
2019-05-01T11:12:48.598Z,29.90
2019-05-01T11:13:48.598Z,29.20
2019-05-01T11:14:48.550Z,28.10
2019-05-01T11:15:48.529Z,28.60
2019-05-01T11:16:48.517Z,31.10
2019-05-01T11:17:48.502Z,25.00
2019-05-01T11:18:48.486Z,30.00
2019-05-01T11:19:48.476Z,28.20
2019-05-01T11:20:48.442Z,28.40
2019-05-01T11:21:48.428Z,30.50
2019-05-01T11:22:48.413Z,30.50
2019-05-01T11:23:48.390Z,29.80
2019-05-01T11:24:48.403Z,29.10
2019-05-01T11:25:48.356Z,25.10
2019-05-01T11:26:48.343Z,28.10
2019-05-01T11:27:48.317Z,24.50
2019-05-01T11:28:48.304Z,29.70
2019-05-01T11:29:48.289Z,30.50
2019-05-01T11:30:48.288Z,28.80
2019-05-01T11:31:48.288Z,25.30
2019-05-01T11:32:48.234Z,26.30
2019-05-01T11:33:48.219Z,30.60
2019-05-01T11:34:48.198Z,28.10
2019-05-01T11:35:48.175Z,27.90
2019-05-01T11:36:48.156Z,27.40
2019-05-01T11:37:48.164Z,24.40
2019-05-01T11:38:48.122Z,29.00
2019-05-01T11:39:48.114Z,26.40
2019-05-01T11:40:48.086Z,28.60
2019-05-01T11:41:48.074Z,24.70
2019-05-01T11:42:48.057Z,25.40
2019-05-01T11:43:48.058Z,24.20
2019-05-01T11:44:48.012Z,26.20
2019-05-01T11:45:48.033Z,28.40
2019-05-01T11:46:47.977Z,28.20
2019-05-01T11:47:47.961Z,32.40
2019-05-01T11:48:47.944Z,25.50
2019-05-01T11:49:47.934Z,29.80
2019-05-01T11:50:47.904Z,27.40
2019-05-01T11:51:47.923Z,29.30
2019-05-01T11:52:47.869Z,31.00
2019-05-01T11:53:47.862Z,30.30
2019-05-01T11:54:47.847Z,32.80
2019-05-01T11:55:47.819Z,32.20
2019-05-01T11:56:47.837Z,30.50
2019-05-01T11:57:47.791Z,31.90
2019-05-01T11:58:47.767Z,34.30
2019-05-01T11:59:47.749Z,33.50
2019-05-01T12:00:47.735Z,34.40
2019-05-01T12:01:47.720Z,33.20
2019-05-01T12:02:47.723Z,29.70
2019-05-01T12:03:47.693Z,27.20
2019-05-01T12:04:47.659Z,31.70
2019-05-01T12:05:47.652Z,29.60
2019-05-01T12:06:47.625Z,29.40
2019-05-01T12:07:47.609Z,29.10
2019-05-01T12:08:47.616Z,29.70
2019-05-01T12:09:47.573Z,29.90
2019-05-01T12:10:47.554Z,32.30
2019-05-01T12:11:47.547Z,30.80
2019-05-01T12:12:47.529Z,31.70
2019-05-01T12:13:47.509Z,28.40
2019-05-01T12:14:47.503Z,27.10
2019-05-01T12:15:47.474Z,27.50
2019-05-01T12:16:47.468Z,28.90
2019-05-01T12:17:47.435Z,30.50
2019-05-01T12:18:47.475Z,27.10
2019-05-01T12:19:47.400Z,28.60
2019-05-01T12:20:47.404Z,27.20
2019-05-01T12:21:47.369Z,24.30
2019-05-01T12:22:49.577Z,27.10
2019-05-01T12:23:47.372Z,27.10
2019-05-01T12:24:47.311Z,30.30
2019-05-01T12:25:47.295Z,27.50
2019-05-01T12:26:47.282Z,27.80
2019-05-01T12:27:47.260Z,25.00
2019-05-01T12:28:47.245Z,25.30
2019-05-01T12:29:47.242Z,24.10
2019-05-01T12:30:47.229Z,30.90
2019-05-01T12:31:47.190Z,28.60
2019-05-01T12:32:47.173Z,26.00
2019-05-01T12:33:47.161Z,27.40
2019-05-01T12:34:47.145Z,28.10
2019-05-01T12:35:47.150Z,29.60
2019-05-01T12:36:47.141Z,24.60
2019-05-01T12:37:47.087Z,30.90
2019-05-01T12:38:47.072Z,26.00
2019-05-01T12:39:47.051Z,29.10
2019-05-01T12:40:47.033Z,25.40
2019-05-01T12:41:47.023Z,24.70
2019-05-01T12:42:47.022Z,26.70
2019-05-01T12:43:46.983Z,27.50
2019-05-01T12:44:46.965Z,26.60
2019-05-01T12:45:46.958Z,27.90
2019-05-01T12:46:46.931Z,26.60
2019-05-01T12:47:46.921Z,27.70
2019-05-01T12:48:46.913Z,25.60
2019-05-01T12:49:46.900Z,25.30
2019-05-01T12:50:46.947Z,26.20
2019-05-01T12:51:46.869Z,28.10
2019-05-01T12:52:46.829Z,27.70
2019-05-01T12:53:46.815Z,29.40
2019-05-01T12:54:46.794Z,25.40
2019-05-01T12:55:46.803Z,31.80